Terminal Aerodrome Forecast
Issued by NWS Wilmington, NC

Home | Current Version | Previous Version | Text Only | Print | Product List | Glossary On
Versions: 1 2 3 4 5 6 7 8 9 10 11 12 13 14 15 16 17 18 19 20 21 22 23 24 25
000
FTUS42 KILM 031100
TAFFLO
TAF
KFLO 031137Z 0312/0412 08008KT P6SM -RA SCT009 OVC025
     FM031400 08008KT 6SM -RA OVC018
     FM031700 08007KT 5SM -RA BR OVC009
     FM032300 VRB04KT 2SM -DZ BR OVC004
     FM040500 21008KT 5SM -RA BR SCT004 OVC008=

USA.gov is the U.S. government's official web portal to all federal, state and local government web resources and services.